Time;durP1;ratioP1;P1;durP2;ratioP2;P2;SDS_P1;SDS_P2;PMS_P1;PMS_P2;Temp;Humidity;BMP_temperature;BMP_pressure;BME280_temperature;BME280_humidity;BME280_pressure;Samples;Min_cycle;Max_cycle;Signal;HPM_P1;HPM_P2
2023/08/12 00:00:19;;;;;;;28.92;25.70;;;18.30;99.90;;;;;;4996118;28;20405;-50
2023/08/12 00:02:45;;;;;;;13.40;10.70;;;18.30;99.90;;;;;;4996109;28;20462;-49
2023/08/12 00:05:12;;;;;;;9.23;6.85;;;;;;;;;;4995581;28;20121;-51
2023/08/12 00:07:41;;;;;;;7.32;6.13;;;;;;;;;;4996045;28;20059;-49
2023/08/12 00:10:07;;;;;;;8.98;6.72;;;18.20;99.90;;;;;;4995779;28;20466;-50
2023/08/12 00:12:34;;;;;;;9.82;8.85;;;18.20;99.90;;;;;;4976740;28;20034;-49
2023/08/12 00:15:00;;;;;;;13.48;11.50;;;18.00;99.90;;;;;;4995659;28;20062;-49
2023/08/12 00:17:26;;;;;;;13.48;12.13;;;18.10;99.90;;;;;;4995883;28;20096;-49
2023/08/12 00:19:52;;;;;;;11.45;10.27;;;18.00;99.90;;;;;;4995707;28;20038;-49
2023/08/12 00:22:18;;;;;;;6.90;5.60;;;17.90;99.90;;;;;;4995610;28;20034;-50
2023/08/12 00:24:44;;;;;;;7.70;4.30;;;17.90;99.90;;;;;;4977226;28;20049;-51
2023/08/12 00:27:10;;;;;;;4.30;3.35;;;17.90;99.90;;;;;;4995868;28;20030;-49
2023/08/12 00:29:36;;;;;;;5.60;3.00;;;17.90;99.90;;;;;;4995358;28;20125;-50
2023/08/12 00:32:03;;;;;;;3.67;2.80;;;17.90;99.90;;;;;;4995198;28;20117;-50
2023/08/12 00:34:29;;;;;;;3.03;2.40;;;17.90;99.90;;;;;;4992619;28;20042;-49
2023/08/12 00:36:54;;;;;;;5.28;2.67;;;17.90;99.90;;;;;;4995288;28;20034;-50
2023/08/12 00:39:20;;;;;;;3.50;2.60;;;17.80;99.90;;;;;;4995358;28;21367;-50
2023/08/12 00:41:46;;;;;;;5.50;2.92;;;17.80;99.90;;;;;;4995014;28;20477;-50
2023/08/12 00:44:12;;;;;;;4.57;2.88;;;17.70;99.90;;;;;;5009501;28;20049;-49
2023/08/12 00:46:40;;;;;;;4.25;2.90;;;17.70;99.90;;;;;;4995249;28;20038;-51
2023/08/12 00:49:06;;;;;;;5.75;2.90;;;17.70;99.90;;;;;;4995027;28;20034;-49
2023/08/12 00:51:32;;;;;;;4.57;2.65;;;17.80;99.90;;;;;;4995294;28;20492;-51
2023/08/12 00:53:59;;;;;;;5.50;2.85;;;17.70;99.90;;;;;;4994693;28;20065;-51
2023/08/12 00:56:26;;;;;;;7.70;2.97;;;17.70;99.90;;;;;;5009658;28;20050;-50
2023/08/12 00:58:53;;;;;;;4.55;2.58;;;17.60;99.90;;;;;;4994821;28;20035;-51
2023/08/12 01:01:20;;;;;;;6.43;3.10;;;17.70;99.90;;;;;;4994894;28;20117;-49
2023/08/12 01:03:46;;;;;;;3.92;2.85;;;17.70;99.90;;;;;;4994912;28;20042;-51
2023/08/12 01:06:12;;;;;;;4.00;2.85;;;17.80;99.90;;;;;;4995232;28;20034;-50
2023/08/12 01:08:38;;;;;;;4.88;3.10;;;17.90;99.90;;;;;;4994642;28;20046;-49
2023/08/12 01:11:25;;;;;;;3.95;2.65;;;17.90;99.90;;;;;;5009208;28;20042;-51
2023/08/12 01:14:20;;;;;;;4.80;2.58;;;17.70;99.90;;;;;;5011819;28;20406;-49
2023/08/12 01:16:49;;;;;;;4.07;2.78;;;17.70;99.90;;;;;;5004099;28;20050;-51
2023/08/12 01:19:28;;;;;;;4.20;2.72;;;17.60;99.90;;;;;;5011939;28;20053;-51
2023/08/12 01:21:59;;;;;;;5.82;2.78;;;17.70;99.90;;;;;;5011842;28;20045;-50
2023/08/12 01:24:25;;;;;;;4.60;2.60;;;17.60;99.90;;;;;;5012088;28;20128;-50
2023/08/12 01:26:51;;;;;;;4.93;2.40;;;17.70;99.90;;;;;;5012465;28;20125;-48
2023/08/12 01:29:17;;;;;;;5.43;2.35;;;17.60;99.90;;;;;;5012014;28;20049;-49
2023/08/12 01:31:50;;;;;;;6.68;2.67;;;17.60;99.90;;;;;;5011917;28;20037;-50
2023/08/12 01:34:22;;;;;;;5.43;3.05;;;17.60;99.90;;;;;;4995324;28;20088;-50
2023/08/12 01:36:58;;;;;;;3.33;2.45;;;17.60;99.90;;;;;;5011771;28;20036;-50
2023/08/12 01:39:26;;;;;;;4.25;2.40;;;17.50;99.90;;;;;;5011857;28;20567;-49
2023/08/12 01:41:53;;;;;;;5.40;3.17;;;17.60;99.90;;;;;;5011962;28;20069;-48
2023/08/12 01:44:19;;;;;;;4.30;2.97;;;17.50;99.90;;;;;;4976333;28;20078;-50
2023/08/12 01:46:46;;;;;;;4.65;3.00;;;17.50;99.90;;;;;;4992649;28;20073;-49
2023/08/12 01:49:11;;;;;;;4.50;3.13;;;17.50;99.90;;;;;;4994021;28;20422;-49
2023/08/12 01:51:37;;;;;;;4.10;2.88;;;17.40;99.90;;;;;;4992779;28;20099;-49
2023/08/12 01:54:03;;;;;;;4.40;2.42;;;17.30;99.90;;;;;;4993990;28;20126;-49
2023/08/12 01:56:29;;;;;;;5.63;3.08;;;17.30;99.90;;;;;;4992210;28;20043;-49
2023/08/12 01:58:54;;;;;;;5.30;2.90;;;18.90;99.90;;;;;;4991964;28;20038;-50
2023/08/12 02:01:20;;;;;;;9.20;3.00;;;17.20;99.90;;;;;;4993980;28;20054;-50
2023/08/12 02:03:46;;;;;;;4.72;2.80;;;17.20;99.90;;;;;;4993942;28;20044;-48
2023/08/12 02:06:11;;;;;;;5.97;2.90;;;17.00;99.90;;;;;;4993902;28;20065;-49
2023/08/12 02:08:37;;;;;;;6.65;2.95;;;17.00;99.90;;;;;;4993597;28;20145;-49
2023/08/12 02:11:03;;;;;;;4.43;2.65;;;17.00;99.90;;;;;;4993413;28;20050;-49
2023/08/12 02:13:29;;;;;;;5.10;3.15;;;16.90;99.90;;;;;;4993706;28;20081;-50
2023/08/12 02:15:55;;;;;;;5.30;2.97;;;17.00;99.90;;;;;;4994202;28;20378;-50
2023/08/12 02:18:20;;;;;;;6.70;3.20;;;17.10;99.90;;;;;;4993716;28;20038;-50
2023/08/12 02:20:49;;;;;;;6.22;3.22;;;17.10;99.90;;;;;;4975947;28;20082;-50
2023/08/12 02:23:15;;;;;;;3.65;2.50;;;17.00;99.90;;;;;;4994004;28;20030;-49
2023/08/12 02:25:41;;;;;;;5.70;2.80;;;17.00;99.90;;;;;;4993848;28;20113;-48
2023/08/12 02:28:06;;;;;;;4.38;2.63;;;17.00;99.90;;;;;;4993897;28;20101;-51
2023/08/12 02:30:33;;;;;;;7.10;2.90;;;17.10;99.90;;;;;;4997687;28;20088;-48
2023/08/12 02:32:58;;;;;;;14.73;3.17;;;17.20;99.90;;;;;;4997672;28;20088;-50
2023/08/12 02:35:24;;;;;;;4.20;3.00;;;17.20;99.90;;;;;;4997651;28;20109;-48
2023/08/12 02:37:50;;;;;;;3.40;2.70;;;17.20;99.90;;;;;;4997803;28;20077;-49
2023/08/12 02:40:16;;;;;;;7.20;2.90;;;17.30;99.90;;;;;;5012035;28;20051;-50
2023/08/12 02:42:42;;;;;;;6.43;2.80;;;17.30;99.90;;;;;;4997576;28;20031;-49
2023/08/12 02:45:08;;;;;;;4.43;2.83;;;17.30;99.90;;;;;;4997664;28;20417;-50
2023/08/12 02:47:33;;;;;;;4.57;2.80;;;17.20;99.90;;;;;;4995549;28;20046;-49
2023/08/12 02:49:59;;;;;;;4.13;3.10;;;17.20;99.90;;;;;;4997345;28;20492;-50
2023/08/12 02:52:25;;;;;;;6.07;2.90;;;17.20;99.90;;;;;;4995604;28;20130;-50
2023/08/12 02:54:51;;;;;;;3.85;2.50;;;17.20;99.90;;;;;;4979346;28;20046;-49
2023/08/12 02:57:17;;;;;;;5.95;3.25;;;17.20;99.90;;;;;;4997461;28;20061;-50
2023/08/12 02:59:42;;;;;;;6.40;3.10;;;17.20;99.90;;;;;;4997390;28;20041;-48
2023/08/12 03:02:08;;;;;;;5.32;2.80;;;17.40;99.90;;;;;;4995206;28;20046;-49
2023/08/12 03:04:34;;;;;;;4.35;2.53;;;17.30;99.90;;;;;;4996812;28;20034;-51
2023/08/12 03:06:59;;;;;;;4.63;2.80;;;17.30;99.90;;;;;;4997604;28;20045;-50
2023/08/12 03:09:25;;;;;;;5.20;3.15;;;17.30;99.90;;;;;;4997053;28;20053;-49
2023/08/12 03:11:51;;;;;;;5.78;2.92;;;17.30;99.90;;;;;;4997065;28;20030;-49
2023/08/12 03:14:17;;;;;;;6.30;3.42;;;17.30;99.90;;;;;;4996864;28;20089;-50
2023/08/12 03:16:42;;;;;;;4.95;2.75;;;17.30;99.90;;;;;;4979034;28;20042;-49
2023/08/12 03:19:08;;;;;;;4.90;2.97;;;17.40;99.90;;;;;;4978659;28;20042;-49
2023/08/12 03:21:34;;;;;;;11.55;3.53;;;17.40;99.90;;;;;;4996836;28;20050;-49
2023/08/12 03:24:00;;;;;;;5.13;2.75;;;17.40;99.90;;;;;;4997030;28;20058;-49
2023/08/12 03:26:26;;;;;;;5.63;2.85;;;17.30;99.90;;;;;;4996858;28;20038;-48
2023/08/12 03:28:52;;;;;;;8.82;3.13;;;17.30;99.90;;;;;;4996808;28;20117;-49
2023/08/12 03:31:18;;;;;;;5.22;2.83;;;17.20;99.90;;;;;;4997155;28;20177;-51
2023/08/12 03:33:43;;;;;;;5.88;3.35;;;17.20;99.90;;;;;;4994397;28;20038;-51
2023/08/12 03:36:09;;;;;;;5.95;3.47;;;17.20;99.90;;;;;;5013821;28;20440;-50
2023/08/12 03:38:35;;;;;;;5.82;3.17;;;17.20;99.90;;;;;;5013019;28;20046;-49
2023/08/12 03:41:02;;;;;;;7.72;3.40;;;17.20;99.90;;;;;;5013664;28;20185;-50
2023/08/12 03:43:28;;;;;;;5.55;3.05;;;17.20;99.90;;;;;;4997369;28;20121;-50
2023/08/12 03:45:54;;;;;;;6.22;2.83;;;17.30;99.90;;;;;;5013964;28;20513;-50
2023/08/12 03:48:19;;;;;;;6.65;3.10;;;17.30;99.90;;;;;;4997296;28;20462;-49
2023/08/12 03:50:47;;;;;;;8.85;3.15;;;17.20;99.90;;;;;;4997410;28;20060;-48
2023/08/12 03:53:13;;;;;;;9.23;3.60;;;17.20;99.90;;;;;;5013786;28;20045;-51
2023/08/12 03:55:38;;;;;;;7.32;3.60;;;17.20;99.90;;;;;;5013559;28;20046;-49
2023/08/12 03:58:04;;;;;;;6.18;3.33;;;17.20;99.90;;;;;;4997473;28;20042;-49
2023/08/12 04:00:31;;;;;;;9.77;3.40;;;17.20;99.90;;;;;;5013448;28;20165;-50
2023/08/12 04:02:58;;;;;;;6.40;3.55;;;17.10;99.90;;;;;;5013547;28;20041;-50
2023/08/12 04:05:23;;;;;;;7.43;3.22;;;17.10;99.90;;;;;;4961288;28;20046;-48
2023/08/12 04:07:49;;;;;;;6.63;3.75;;;17.20;99.90;;;;;;4993435;28;20057;-50
2023/08/12 04:10:15;;;;;;;5.45;3.05;;;17.20;99.90;;;;;;4993875;28;20404;-48
2023/08/12 04:12:41;;;;;;;5.60;3.30;;;17.10;99.90;;;;;;4993772;28;20034;-48
2023/08/12 04:15:08;;;;;;;11.10;3.78;;;17.20;99.90;;;;;;4993337;28;20125;-49
2023/08/12 04:17:34;;;;;;;13.63;4.13;;;17.20;99.90;;;;;;4993074;28;20042;-48
2023/08/12 04:20:00;;;;;;;6.85;3.78;;;17.20;99.90;;;;;;4986859;28;20485;-50
2023/08/12 04:22:26;;;;;;;9.65;4.20;;;17.10;99.90;;;;;;4993500;28;20513;-49
2023/08/12 04:24:52;;;;;;;7.28;4.35;;;17.20;99.90;;;;;;4993123;28;20407;-50
2023/08/12 04:27:17;;;;;;;7.32;4.68;;;17.20;99.90;;;;;;4993569;28;20041;-49
2023/08/12 04:29:43;;;;;;;9.90;4.57;;;17.30;99.90;;;;;;4993126;28;20134;-50
2023/08/12 04:32:09;;;;;;;9.70;4.03;;;17.40;99.90;;;;;;4993417;28;20556;-50
2023/08/12 04:34:34;;;;;;;6.82;3.55;;;17.50;99.90;;;;;;4976692;28;20038;-51
2023/08/12 04:37:00;;;;;;;5.43;3.20;;;17.50;99.90;;;;;;4994938;28;20099;-49
2023/08/12 04:39:26;;;;;;;10.23;3.67;;;17.60;99.90;;;;;;4993674;28;20065;-50
2023/08/12 04:41:52;;;;;;;6.95;3.45;;;17.60;99.90;;;;;;4995563;28;20398;-48
2023/08/12 04:44:18;;;;;;;7.00;3.60;;;17.70;99.90;;;;;;4994577;28;20152;-50
2023/08/12 04:46:44;;;;;;;5.00;3.03;;;17.70;99.90;;;;;;4993417;28;20038;-49
2023/08/12 04:49:10;;;;;;;6.65;3.10;;;17.70;99.90;;;;;;4991156;28;20050;-49
2023/08/12 04:51:35;;;;;;;8.68;3.38;;;17.60;99.90;;;;;;4993896;28;20473;-48
2023/08/12 04:54:02;;;;;;;9.00;3.20;;;17.80;99.90;;;;;;4994960;28;20029;-49
2023/08/12 04:56:30;;;;;;;6.38;2.78;;;17.90;99.90;;;;;;4994281;28;20035;-50
2023/08/12 04:58:56;;;;;;;6.60;2.67;;;18.00;99.90;;;;;;4994253;28;20042;-49
2023/08/12 05:01:22;;;;;;;7.82;3.15;;;18.00;99.90;;;;;;4991930;28;20498;-48
2023/08/12 05:03:47;;;;;;;7.07;3.03;;;18.10;99.90;;;;;;4994224;28;20026;-50
2023/08/12 05:06:13;;;;;;;4.90;2.95;;;17.90;99.90;;;;;;4994274;28;20085;-50
2023/08/12 05:08:39;;;;;;;6.55;3.22;;;18.00;99.90;;;;;;4992095;28;20050;-51
2023/08/12 05:11:05;;;;;;;5.68;3.78;;;18.10;99.90;;;;;;4993691;28;20042;-50
2023/08/12 05:13:30;;;;;;;5.65;2.60;;;18.10;99.90;;;;;;4991460;28;20030;-49
2023/08/12 05:15:56;;;;;;;5.28;2.80;;;18.20;99.90;;;;;;4987216;28;20069;-50
2023/08/12 05:18:23;;;;;;;5.65;3.65;;;18.20;99.90;;;;;;4993319;28;20112;-51
2023/08/12 05:20:51;;;;;;;3.97;2.80;;;18.20;99.90;;;;;;4993206;28;20046;-49
2023/08/12 05:23:17;;;;;;;5.35;2.78;;;18.20;99.90;;;;;;4993424;28;20034;-49
2023/08/12 05:25:43;;;;;;;5.05;2.63;;;18.30;99.90;;;;;;5007611;28;20038;-50
2023/08/12 05:28:08;;;;;;;6.20;3.05;;;18.30;99.90;;;;;;4993276;28;20035;-50
2023/08/12 05:30:35;;;;;;;6.28;3.20;;;18.50;99.90;;;;;;5007346;28;20478;-49
2023/08/12 05:33:01;;;;;;;8.30;2.97;;;18.60;99.90;;;;;;4991053;28;20125;-50
2023/08/12 05:35:27;;;;;;;5.22;3.15;;;18.60;99.90;;;;;;4994086;28;20450;-50
2023/08/12 05:37:53;;;;;;;6.28;3.00;;;18.70;99.90;;;;;;4994210;28;20030;-51
2023/08/12 05:40:19;;;;;;;4.35;2.53;;;18.70;99.90;;;;;;4993799;28;20064;-51
2023/08/12 05:42:44;;;;;;;9.13;2.83;;;18.80;99.90;;;;;;4993885;28;20030;-50
2023/08/12 05:45:10;;;;;;;6.50;3.15;;;18.90;99.90;;;;;;5008300;28;20053;-48
2023/08/12 05:47:36;;;;;;;4.97;2.75;;;19.00;99.90;;;;;;4993691;28;20066;-49
2023/08/12 05:50:02;;;;;;;4.38;2.58;;;19.00;99.90;;;;;;4994288;28;20027;-51
2023/08/12 05:52:28;;;;;;;6.13;2.28;;;19.10;99.90;;;;;;5008206;28;20042;-50
2023/08/12 05:54:53;;;;;;;3.95;2.53;;;19.20;99.90;;;;;;4993995;28;20045;-51
2023/08/12 05:57:19;;;;;;;3.15;1.98;;;19.20;99.90;;;;;;4991757;28;20169;-50
2023/08/12 05:59:45;;;;;;;6.57;2.63;;;19.20;99.90;;;;;;4994183;28;20077;-49
2023/08/12 06:02:10;;;;;;;4.00;2.80;;;19.20;99.90;;;;;;4992913;28;20093;-49
2023/08/12 06:04:36;;;;;;;5.35;3.05;;;19.30;99.90;;;;;;4993990;28;20022;-50
2023/08/12 06:07:02;;;;;;;8.85;2.78;;;19.50;99.90;;;;;;4993339;28;20033;-48
2023/08/12 06:09:27;;;;;;;6.00;2.72;;;19.50;99.90;;;;;;5006943;28;20054;-49
2023/08/12 06:11:53;;;;;;;5.28;2.75;;;19.70;99.90;;;;;;4993832;28;20066;-49
2023/08/12 06:14:19;;;;;;;4.82;2.63;;;19.90;99.90;;;;;;4991140;28;20048;-51
2023/08/12 06:16:45;;;;;;;5.70;2.53;;;19.90;99.90;;;;;;4994017;28;20030;-50
2023/08/12 06:19:10;;;;;;;7.40;3.45;;;19.90;99.90;;;;;;4991704;28;20069;-50
2023/08/12 06:21:36;;;;;;;6.57;2.90;;;19.90;99.90;;;;;;4991003;28;20081;-49
2023/08/12 06:24:02;;;;;;;6.35;3.05;;;20.00;99.90;;;;;;4993880;28;20034;-49
2023/08/12 06:26:27;;;;;;;4.45;2.65;;;20.10;99.90;;;;;;4994060;28;20033;-50
2023/08/12 06:28:53;;;;;;;6.20;3.25;;;20.20;99.90;;;;;;4993433;28;20548;-49
2023/08/12 06:31:19;;;;;;;6.25;3.00;;;20.30;99.90;;;;;;4991080;28;20051;-50
2023/08/12 06:33:44;;;;;;;4.65;2.90;;;20.40;99.90;;;;;;4989560;28;20043;-51
2023/08/12 06:36:11;;;;;;;6.45;2.90;;;20.50;99.90;;;;;;4993146;28;20031;-49
2023/08/12 06:38:36;;;;;;;5.90;2.80;;;20.60;99.90;;;;;;4991812;28;20026;-51
2023/08/12 06:41:02;;;;;;;4.35;2.63;;;20.70;99.90;;;;;;4991865;28;20041;-52
2023/08/12 06:43:28;;;;;;;7.00;3.28;;;20.90;99.90;;;;;;5006605;28;20062;-51
2023/08/12 06:45:54;;;;;;;7.50;3.03;;;21.00;99.90;;;;;;4991015;28;20569;-50
2023/08/12 06:48:21;;;;;;;6.90;3.72;;;21.00;99.90;;;;;;4990595;28;20050;-50
2023/08/12 06:50:54;;;;;;;5.97;3.20;;;21.10;99.90;;;;;;5010585;28;20069;-48
2023/08/12 06:53:19;;;;;;;4.85;2.65;;;21.20;99.90;;;;;;5010287;28;20414;-49
2023/08/12 06:55:46;;;;;;;6.65;2.83;;;21.20;99.90;;;;;;5010137;28;20045;-49
2023/08/12 06:58:12;;;;;;;5.28;2.70;;;21.40;99.90;;;;;;5006611;28;20355;-47
2023/08/12 07:00:38;;;;;;;6.00;2.60;;;21.20;99.90;;;;;;4934621;28;20069;-48
2023/08/12 07:03:04;;;;;;;6.10;3.08;;;21.20;99.90;;;;;;4971204;28;20043;-49
2023/08/12 07:05:29;;;;;;;4.03;2.22;;;21.30;99.90;;;;;;4936433;28;20074;-48
2023/08/12 07:07:55;;;;;;;5.25;3.13;;;21.50;99.90;;;;;;4969757;28;20499;-47
2023/08/12 07:10:21;;;;;;;5.25;2.47;;;21.60;99.90;;;;;;4960241;28;20035;-48
2023/08/12 07:12:47;;;;;;;4.30;2.85;;;21.80;99.90;;;;;;4952506;28;20080;-48
2023/08/12 07:15:12;;;;;;;4.38;2.53;;;21.80;99.90;;;;;;4956826;28;20039;-51
2023/08/12 07:17:38;;;;;;;5.65;2.63;;;;;;;;;;4910847;28;20038;-48
2023/08/12 07:20:06;;;;;;;3.63;2.38;;;22.10;99.90;;;;;;4958610;28;20058;-49
2023/08/12 07:22:32;;;;;;;3.67;2.40;;;22.20;99.90;;;;;;4924419;28;20040;-49
2023/08/12 07:24:59;;;;;;;5.82;2.83;;;;;;;;;;4975300;28;20053;-47
2023/08/12 07:27:26;;;;;;;11.18;3.03;;;;;;;;;;4973201;28;20039;-50
2023/08/12 07:29:52;;;;;;;4.40;2.42;;;;;;;;;;4975510;28;20082;-49
2023/08/12 07:32:19;;;;;;;8.75;2.80;;;;;;;;;;4986223;28;20046;-50
2023/08/12 07:34:45;;;;;;;4.03;2.65;;;;;;;;;;4990151;28;20061;-48
2023/08/12 07:37:11;;;;;;;7.45;2.65;;;;;;;;;;4996503;28;20088;-48
2023/08/12 07:39:37;;;;;;;10.73;2.90;;;23.10;99.90;;;;;;4996455;28;20042;-50
2023/08/12 07:42:03;;;;;;;5.53;2.80;;;23.00;99.90;;;;;;4995997;28;20462;-49
2023/08/12 07:44:29;;;;;;;5.68;2.60;;;;;;;;;;4996430;28;20034;-50
2023/08/12 07:46:55;;;;;;;7.47;2.72;;;23.20;99.90;;;;;;4996287;28;20494;-49
2023/08/12 07:49:22;;;;;;;8.70;2.70;;;;;;;;;;4995900;28;20101;-51
2023/08/12 07:51:48;;;;;;;5.90;2.88;;;;;;;;;;4996181;28;20030;-48
2023/08/12 07:54:14;;;;;;;11.40;3.65;;;23.90;99.90;;;;;;5010548;28;20039;-51
2023/08/12 07:56:40;;;;;;;7.75;2.75;;;23.90;99.90;;;;;;4996194;28;20035;-50
2023/08/12 07:59:06;;;;;;;7.47;3.20;;;;;;;;;;4996577;28;20076;-49
2023/08/12 08:01:32;;;;;;;6.65;3.22;;;;;;;;;;4995966;28;20089;-49
2023/08/12 08:03:58;;;;;;;7.35;3.60;;;;;;;;;;4996022;28;20026;-51
2023/08/12 08:06:23;;;;;;;9.52;3.25;;;24.20;99.90;;;;;;4996062;28;20030;-51
2023/08/12 08:09:10;;;;;;;11.50;4.18;;;;;;;;;;5011502;28;20049;-51
2023/08/12 08:11:36;;;;;;;6.10;3.30;;;;;;;;;;5013259;28;20041;-49
2023/08/12 08:14:02;;;;;;;12.95;2.83;;;;;;;;;;5013028;28;20470;-49
2023/08/12 08:16:28;;;;;;;12.70;3.17;;;25.00;99.90;;;;;;5013383;28;20030;-49
2023/08/12 08:18:54;;;;;;;9.88;3.30;;;;;;;;;;5013160;28;20544;-50
2023/08/12 08:21:20;;;;;;;6.45;3.05;;;;;;;;;;5013095;28;20046;-51
2023/08/12 08:23:46;;;;;;;10.15;2.88;;;25.30;99.90;;;;;;5012993;28;20044;-52
2023/08/12 08:26:13;;;;;;;8.60;3.10;;;;;;;;;;5012016;28;20038;-53
2023/08/12 08:28:39;;;;;;;8.23;2.70;;;;;;;;;;5011427;28;20096;-51
2023/08/12 08:31:05;;;;;;;7.00;2.40;;;;;;;;;;5012024;28;20408;-50
2023/08/12 08:33:32;;;;;;;6.85;3.00;;;25.60;99.90;;;;;;5012777;28;20124;-51
2023/08/12 08:35:58;;;;;;;5.45;3.15;;;;;;;;;;5012347;28;20022;-50
2023/08/12 08:38:24;;;;;;;8.45;3.13;;;;;;;;;;4980393;28;20138;-51
2023/08/12 08:40:51;;;;;;;6.28;3.00;;;;;;;;;;4998949;28;20046;-49
2023/08/12 08:43:24;;;;;;;5.93;3.15;;;;;;;;;;4995913;28;20060;-50
2023/08/12 08:45:53;;;;;;;3.75;2.45;;;27.10;99.90;;;;;;4995285;28;20041;-48
2023/08/12 08:48:20;;;;;;;4.93;2.70;;;;;;;;;;5007764;28;20408;-50
2023/08/12 08:50:47;;;;;;;5.70;2.55;;;;;;;;;;4994652;28;20060;-49
2023/08/12 08:53:14;;;;;;;7.32;3.28;;;;;;;;;;4994861;28;20046;-49
2023/08/12 08:55:43;;;;;;;4.78;2.70;;;;;;;;;;4991216;28;20025;-50
2023/08/12 08:58:09;;;;;;;4.40;2.95;;;28.60;99.90;;;;;;4994415;28;20027;-50
2023/08/12 09:00:37;;;;;;;4.88;3.03;;;;;;;;;;4995081;28;20042;-51
2023/08/12 09:03:03;;;;;;;6.30;3.00;;;28.20;99.90;;;;;;4993881;28;20026;-52
2023/08/12 09:05:30;;;;;;;3.30;2.60;;;;;;;;;;4975074;28;20042;-48
2023/08/12 09:07:59;;;;;;;4.30;2.40;;;28.50;99.90;;;;;;4994031;28;20137;-49
2023/08/12 09:10:27;;;;;;;3.40;2.83;;;;;;;;;;4976305;28;20576;-49
2023/08/12 09:12:55;;;;;;;7.47;3.53;;;29.20;99.90;;;;;;4994259;28;20014;-48
2023/08/12 09:15:21;;;;;;;6.75;2.65;;;;;;;;;;4991598;28;20030;-49
2023/08/12 09:17:47;;;;;;;10.63;2.92;;;29.20;99.90;;;;;;4994124;28;20029;-50
2023/08/12 09:20:13;;;;;;;5.47;2.78;;;;;;;;;;4993901;28;20474;-49
2023/08/12 09:22:41;;;;;;;3.97;2.60;;;;;;;;;;4993869;28;20466;-48
2023/08/12 09:25:08;;;;;;;4.47;2.90;;;;;;;;;;4993928;28;20026;-51
2023/08/12 09:27:36;;;;;;;10.27;2.63;;;;;;;;;;4994203;28;20057;-50
2023/08/12 09:30:04;;;;;;;5.70;2.75;;;30.50;99.90;;;;;;4991372;28;20493;-48
2023/08/12 09:32:30;;;;;;;4.55;2.70;;;30.70;99.90;;;;;;4975633;28;20121;-49
2023/08/12 09:34:56;;;;;;;3.72;2.35;;;;;;;;;;4994282;28;20134;-54
2023/08/12 09:37:23;;;;;;;5.85;2.80;;;;;;;;;;4993343;28;20100;-49
2023/08/12 09:39:52;;;;;;;3.25;1.95;;;;;;;;;;4994685;28;20034;-50
2023/08/12 09:42:19;;;;;;;3.03;2.30;;;;;;;;;;4994115;28;20082;-49
2023/08/12 09:44:45;;;;;;;3.25;2.30;;;30.70;99.90;;;;;;4994495;28;20053;-51
2023/08/12 09:47:11;;;;;;;4.50;2.83;;;30.30;99.30;;;;;;4994453;28;20023;-48
2023/08/12 09:49:39;;;;;;;6.68;2.95;;;31.00;99.50;;;;;;4994274;28;20480;-51
2023/08/12 09:52:06;;;;;;;4.65;2.95;;;30.80;99.40;;;;;;4994002;28;20034;-50
2023/08/12 09:54:32;;;;;;;6.18;2.60;;;30.90;98.90;;;;;;4994264;28;20030;-49
2023/08/12 09:56:59;;;;;;;5.32;2.60;;;31.70;99.90;;;;;;4993956;28;20030;-51
2023/08/12 09:59:36;;;;;;;5.85;2.83;;;32.10;99.90;;;;;;4992866;28;20041;-51
2023/08/12 10:02:09;;;;;;;4.70;2.60;;;31.70;98.50;;;;;;4993739;28;20489;-50
2023/08/12 10:04:41;;;;;;;4.38;2.97;;;32.00;99.10;;;;;;4994239;28;20435;-51
2023/08/12 10:07:09;;;;;;;3.38;2.50;;;30.60;98.90;;;;;;4993945;28;20088;-49
2023/08/12 10:09:37;;;;;;;5.57;2.80;;;30.30;99.40;;;;;;4993754;28;20055;-51
2023/08/12 10:12:03;;;;;;;7.97;3.80;;;30.50;99.40;;;;;;4993509;28;20073;-49
2023/08/12 10:14:30;;;;;;;10.77;4.13;;;;;;;;;;4992212;28;20038;-51
2023/08/12 10:16:57;;;;;;;4.15;2.65;;;;;;;;;;4993639;28;20019;-50
2023/08/12 10:19:25;;;;;;;4.38;2.40;;;32.30;99.90;;;;;;4993729;28;20386;-49
2023/08/12 10:21:55;;;;;;;2.95;2.15;;;31.90;96.60;;;;;;4994085;28;20501;-51
2023/08/12 10:24:21;;;;;;;6.95;2.42;;;31.80;97.40;;;;;;4994104;28;20101;-52
2023/08/12 10:26:51;;;;;;;5.07;2.33;;;32.20;96.50;;;;;;4993594;28;20018;-49
2023/08/12 10:29:17;;;;;;;16.83;2.90;;;;;;;;;;4993593;28;20041;-50
2023/08/12 10:31:46;;;;;;;6.70;5.57;;;33.10;97.50;;;;;;4993570;28;20058;-50
2023/08/12 10:34:23;;;;;;;5.97;2.45;;;33.10;96.20;;;;;;4993753;28;20193;-50
2023/08/12 10:36:55;;;;;;;3.08;2.15;;;32.60;96.80;;;;;;4993827;28;20033;-51
2023/08/12 10:39:28;;;;;;;3.80;1.98;;;32.60;96.20;;;;;;4992321;28;20023;-51
2023/08/12 10:41:55;;;;;;;2.80;2.20;;;32.90;95.30;;;;;;4993823;28;20034;-50
2023/08/12 10:44:22;;;;;;;4.55;3.20;;;32.60;95.00;;;;;;5024308;28;20050;-51
2023/08/12 10:46:52;;;;;;;4.10;2.28;;;32.80;95.70;;;;;;4993343;28;20478;-49
2023/08/12 10:49:22;;;;;;;2.95;2.15;;;33.00;94.80;;;;;;4996065;28;20478;-50
2023/08/12 10:51:49;;;;;;;7.22;2.53;;;;;;;;;;5011899;28;20034;-50
2023/08/12 10:54:20;;;;;;;3.33;2.22;;;33.70;95.10;;;;;;5008494;28;20044;-51
2023/08/12 10:57:05;;;;;;;3.72;2.40;;;33.70;94.80;;;;;;4994871;28;20382;-51
2023/08/12 10:59:46;;;;;;;3.38;2.30;;;;;;;;;;4992239;28;20042;-51
2023/08/12 11:02:20;;;;;;;5.30;2.90;;;;;;;;;;4995607;28;20039;-50
2023/08/12 11:04:54;;;;;;;5.63;2.45;;;34.30;94.30;;;;;;4977055;28;20069;-60
2023/08/12 11:07:22;;;;;;;3.22;1.80;;;34.50;94.20;;;;;;5000034;28;20073;-53
2023/08/12 11:09:52;;;;;;;4.60;3.10;;;34.30;93.90;;;;;;4993185;28;20386;-51
2023/08/12 11:12:27;;;;;;;3.83;2.03;;;34.70;95.10;;;;;;4996156;28;20034;-53
2023/08/12 11:14:59;;;;;;;4.97;2.17;;;35.00;95.40;;;;;;4994128;28;20053;-52
2023/08/12 11:17:39;;;;;;;6.00;2.33;;;35.00;94.30;;;;;;4992625;28;20129;-51
2023/08/12 11:20:07;;;;;;;3.70;2.42;;;34.20;93.70;;;;;;4999367;28;20038;-54
2023/08/12 11:22:38;;;;;;;3.80;1.92;;;33.90;93.70;;;;;;4996604;28;20387;-54
2023/08/12 11:25:08;;;;;;;2.40;1.80;;;33.90;92.70;;;;;;4994217;28;20166;-54
2023/08/12 11:27:41;;;;;;;3.60;2.08;;;33.80;92.90;;;;;;4993817;28;20121;-52
2023/08/12 11:30:10;;;;;;;2.08;1.88;;;34.40;93.40;;;;;;4986308;28;20085;-52
2023/08/12 11:32:36;;;;;;;4.80;1.90;;;34.30;93.60;;;;;;5009703;28;20096;-52
2023/08/12 11:35:03;;;;;;;2.97;2.47;;;34.40;92.70;;;;;;4996013;28;20030;-52
2023/08/12 11:37:29;;;;;;;3.30;2.30;;;34.70;93.70;;;;;;4996568;28;20026;-52
2023/08/12 11:39:55;;;;;;;3.95;2.28;;;35.00;94.90;;;;;;4995788;28;21958;-50
2023/08/12 11:42:21;;;;;;;3.65;2.00;;;34.40;92.30;;;;;;4995890;28;20493;-52
2023/08/12 11:44:46;;;;;;;2.20;2.00;;;34.10;93.30;;;;;;4995822;28;20026;-49
2023/08/12 11:47:33;;;;;;;4.05;2.20;;;33.90;92.50;;;;;;5011885;28;20045;-50
2023/08/12 11:50:01;;;;;;;3.00;1.90;;;33.90;92.20;;;;;;5013115;28;20030;-51
2023/08/12 11:52:27;;;;;;;2.78;2.00;;;34.10;92.50;;;;;;4979205;28;20038;-52
2023/08/12 11:54:53;;;;;;;2.50;2.10;;;34.70;92.60;;;;;;5012268;28;20032;-52
2023/08/12 11:57:19;;;;;;;2.92;2.03;;;;;;;;;;5013029;28;20041;-55
2023/08/12 11:59:45;;;;;;;3.35;2.25;;;35.40;92.30;;;;;;5011361;28;20026;-51
2023/08/12 12:02:12;;;;;;;3.78;2.20;;;35.70;93.00;;;;;;4996575;28;20131;-52
2023/08/12 12:04:40;;;;;;;4.20;2.20;;;35.80;92.70;;;;;;5012688;28;20058;-51
2023/08/12 12:07:21;;;;;;;4.22;2.10;;;35.70;93.20;;;;;;5012471;28;20160;-50
2023/08/12 12:09:51;;;;;;;5.22;2.33;;;35.90;92.90;;;;;;5009760;28;20528;-51
2023/08/12 12:12:17;;;;;;;4.63;1.80;;;35.30;91.60;;;;;;5012928;28;20201;-52
2023/08/12 12:14:42;;;;;;;2.13;1.83;;;35.70;91.30;;;;;;5012582;28;20116;-51
2023/08/12 12:17:10;;;;;;;3.50;2.28;;;35.40;90.90;;;;;;4980338;28;20108;-52
2023/08/12 12:19:36;;;;;;;3.15;2.00;;;;;;;;;;4996040;28;20050;-52
2023/08/12 12:22:03;;;;;;;2.63;1.77;;;;;;;;;;4995331;28;20053;-59
2023/08/12 12:24:30;;;;;;;3.13;2.20;;;31.80;99.90;;;;;;4995431;28;20449;-54
2023/08/12 12:26:57;;;;;;;3.10;2.30;;;;;;;;;;4995424;28;20037;-51
2023/08/12 12:29:23;;;;;;;2.25;1.83;;;;;;;;;;4995249;28;20027;-58
2023/08/12 12:31:49;;;;;;;4.82;2.20;;;31.80;99.90;;;;;;4995430;28;20029;-56
2023/08/12 12:34:15;;;;;;;5.28;2.20;;;;;;;;;;4995437;28;20038;-55
2023/08/12 12:36:41;;;;;;;5.55;2.10;;;32.90;91.80;;;;;;4995445;28;20081;-59
2023/08/12 12:39:08;;;;;;;4.15;2.00;;;;;;;;;;4995457;28;20026;-52
2023/08/12 12:41:34;;;;;;;7.97;2.30;;;32.80;91.90;;;;;;5009181;28;20132;-55
2023/08/12 12:44:01;;;;;;;2.55;1.73;;;32.70;92.40;;;;;;4994435;28;20480;-51
2023/08/12 12:46:28;;;;;;;3.35;1.75;;;32.00;91.20;;;;;;4967095;28;20137;-55
2023/08/12 12:48:54;;;;;;;4.18;2.50;;;;;;;;;;4991487;28;20042;-53
2023/08/12 12:51:20;;;;;;;8.10;2.35;;;31.80;92.00;;;;;;4995054;28;20026;-53
2023/08/12 12:53:46;;;;;;;4.03;1.98;;;;;;;;;;4994782;28;20422;-58
2023/08/12 12:56:12;;;;;;;4.47;2.70;;;32.60;99.90;;;;;;4995139;28;20042;-55
2023/08/12 12:58:38;;;;;;;4.13;2.65;;;32.50;98.80;;;;;;4993337;28;20026;-54
2023/08/12 13:01:05;;;;;;;3.50;2.42;;;32.90;99.90;;;;;;4992673;28;20512;-53
2023/08/12 13:03:31;;;;;;;3.13;2.00;;;;;;;;;;5008054;28;20489;-52